Time;durP1;ratioP1;P1;durP2;ratioP2;P2;SDS_P1;SDS_P2;PMS_P1;PMS_P2;Temp;Humidity;BMP_temperature;BMP_pressure;BME280_temperature;BME280_humidity;BME280_pressure;Samples;Min_cycle;Max_cycle;Signal;HPM_P1;HPM_P2
2021/06/20 00:01:07;;;;;;;17.63;12.38;;;23.50;99.90;;;;;;5105581;28;20024;-72
2021/06/20 00:03:32;;;;;;;16.30;11.63;;;23.50;99.90;;;;;;5100655;28;20027;-72
2021/06/20 00:06:05;;;;;;;15.45;11.85;;;23.40;99.90;;;;;;5098363;28;20043;-72
2021/06/20 00:08:30;;;;;;;17.15;11.80;;;23.40;99.90;;;;;;5097150;28;20040;-72
2021/06/20 00:10:57;;;;;;;17.10;11.60;;;23.30;99.90;;;;;;5099900;28;20458;-72
2021/06/20 00:13:23;;;;;;;17.52;12.75;;;23.20;99.90;;;;;;5105066;28;20482;-74
2021/06/20 00:15:49;;;;;;;17.92;12.18;;;23.20;99.90;;;;;;5105947;28;20080;-72
2021/06/20 00:18:15;;;;;;;15.63;11.40;;;23.20;99.90;;;;;;5103480;28;20019;-72
2021/06/20 00:20:43;;;;;;;18.55;11.73;;;23.20;99.90;;;;;;5098487;28;20027;-72
2021/06/20 00:23:09;;;;;;;14.15;11.50;;;23.20;99.90;;;;;;5099624;28;20032;-72
2021/06/20 00:25:35;;;;;;;16.38;11.70;;;23.20;99.90;;;;;;5093071;27;20158;-72
2021/06/20 00:28:01;;;;;;;13.65;11.00;;;23.20;99.90;;;;;;5101122;28;20573;-72
2021/06/20 00:30:29;;;;;;;15.90;11.20;;;23.20;99.90;;;;;;5100242;28;20367;-74
2021/06/20 00:32:55;;;;;;;15.32;11.38;;;23.20;99.90;;;;;;5099346;28;20136;-74
2021/06/20 00:35:21;;;;;;;17.08;12.45;;;23.20;99.90;;;;;;5098324;28;20020;-74
2021/06/20 00:37:47;;;;;;;15.18;10.65;;;23.20;99.90;;;;;;5101344;28;20051;-74
2021/06/20 00:40:15;;;;;;;16.30;11.02;;;23.20;99.90;;;;;;5106048;28;20032;-74
2021/06/20 00:42:41;;;;;;;17.65;11.43;;;23.20;99.90;;;;;;5107424;28;20024;-74
2021/06/20 00:45:08;;;;;;;16.73;11.40;;;23.10;99.90;;;;;;5099019;28;20036;-74
2021/06/20 00:47:33;;;;;;;16.55;11.95;;;23.10;99.90;;;;;;5093552;28;20036;-73
2021/06/20 00:49:59;;;;;;;12.60;10.00;;;23.00;99.90;;;;;;5093082;28;20698;-74
2021/06/20 00:52:24;;;;;;;13.95;11.23;;;23.00;99.90;;;;;;5103548;28;20474;-74
2021/06/20 00:54:50;;;;;;;16.73;10.98;;;23.00;99.90;;;;;;5102748;28;20035;-74
2021/06/20 00:57:18;;;;;;;13.98;11.43;;;23.00;99.90;;;;;;5104018;28;20028;-74
2021/06/20 00:59:44;;;;;;;17.30;11.68;;;23.00;99.90;;;;;;5099220;28;20099;-74
2021/06/20 01:02:12;;;;;;;19.83;12.75;;;23.00;99.90;;;;;;5094936;28;20047;-74
2021/06/20 01:04:41;;;;;;;16.08;11.15;;;23.00;99.90;;;;;;5106165;28;20035;-73
2021/06/20 01:07:07;;;;;;;15.55;12.15;;;22.90;99.90;;;;;;5105467;28;20044;-74
2021/06/20 01:09:32;;;;;;;18.13;12.65;;;22.90;99.90;;;;;;5106527;28;20435;-74
2021/06/20 01:11:59;;;;;;;20.02;12.32;;;22.90;99.90;;;;;;5103559;28;20031;-73
2021/06/20 01:14:25;;;;;;;15.73;12.25;;;22.90;99.90;;;;;;5100439;28;20475;-73
2021/06/20 01:16:52;;;;;;;15.75;12.07;;;22.90;99.90;;;;;;5098242;28;20099;-73
2021/06/20 01:19:19;;;;;;;16.75;12.02;;;22.90;99.90;;;;;;5104747;28;20036;-73
2021/06/20 01:21:45;;;;;;;16.45;12.50;;;22.80;99.90;;;;;;5094366;28;20028;-73
2021/06/20 01:24:11;;;;;;;14.35;11.63;;;22.80;99.90;;;;;;5095687;28;20028;-73
2021/06/20 01:26:36;;;;;;;18.27;13.05;;;22.70;99.90;;;;;;5098480;28;20395;-74
2021/06/20 01:29:04;;;;;;;14.38;12.55;;;22.70;99.90;;;;;;5103479;28;20472;-73
2021/06/20 01:31:32;;;;;;;20.92;12.85;;;22.80;99.90;;;;;;5105137;28;20404;-73
2021/06/20 01:33:58;;;;;;;16.83;13.18;;;22.70;99.90;;;;;;5102188;28;20023;-73
2021/06/20 01:36:23;;;;;;;19.85;12.43;;;22.70;99.90;;;;;;5100679;28;20039;-73
2021/06/20 01:38:49;;;;;;;15.75;12.52;;;22.70;99.90;;;;;;5094955;28;20725;-73
2021/06/20 01:41:14;;;;;;;19.08;12.60;;;22.70;99.90;;;;;;5102929;28;20619;-73
2021/06/20 01:43:40;;;;;;;17.90;13.20;;;22.60;99.90;;;;;;5105205;28;20051;-73
2021/06/20 01:46:05;;;;;;;20.48;12.65;;;22.60;99.90;;;;;;5108873;27;20031;-73
2021/06/20 01:48:31;;;;;;;17.10;12.63;;;22.60;99.90;;;;;;5102070;28;20106;-73
2021/06/20 01:50:56;;;;;;;18.42;14.02;;;22.50;99.90;;;;;;5096122;28;20069;-73
2021/06/20 01:53:22;;;;;;;21.60;13.65;;;22.50;99.90;;;;;;5102294;28;20019;-74
2021/06/20 01:55:48;;;;;;;21.60;13.95;;;22.50;99.90;;;;;;5101804;28;20470;-73
2021/06/20 01:58:16;;;;;;;22.08;13.05;;;22.60;99.90;;;;;;5100630;28;20026;-73
2021/06/20 02:00:47;;;;;;;19.00;14.02;;;22.60;99.90;;;;;;5097013;28;20070;-73
2021/06/20 02:03:18;;;;;;;20.98;12.93;;;22.50;99.90;;;;;;5110151;28;20092;-74
2021/06/20 02:05:46;;;;;;;;;;;22.50;99.90;;;;;;5106356;28;20158;-73
2021/06/20 02:08:12;;;;;;;21.67;14.05;;;22.50;99.90;;;;;;5093930;28;19919;-73
2021/06/20 02:10:40;;;;;;;15.93;13.68;;;22.40;99.90;;;;;;5099071;28;20494;-73
2021/06/20 02:13:06;;;;;;;21.95;14.05;;;22.40;99.90;;;;;;5107601;28;20560;-74
2021/06/20 02:15:33;;;;;;;19.83;14.73;;;22.30;99.90;;;;;;5107081;28;20490;-73
2021/06/20 02:17:58;;;;;;;17.05;14.93;;;22.20;99.90;;;;;;5097576;28;20020;-73
2021/06/20 02:20:24;;;;;;;16.58;14.05;;;22.20;99.90;;;;;;5103518;28;20080;-73
2021/06/20 02:22:51;;;;;;;19.08;15.23;;;22.10;99.90;;;;;;5098773;28;20063;-73
2021/06/20 02:25:18;;;;;;;17.85;14.80;;;22.00;99.90;;;;;;5096669;28;20474;-73
2021/06/20 02:27:46;;;;;;;20.38;15.02;;;22.00;99.90;;;;;;5099577;28;20116;-73
2021/06/20 02:30:13;;;;;;;20.05;14.95;;;22.00;99.90;;;;;;5097261;28;20081;-73
2021/06/20 02:32:39;;;;;;;19.40;15.13;;;21.90;99.90;;;;;;5090916;28;20036;-73
2021/06/20 02:35:07;;;;;;;21.17;14.75;;;21.90;99.90;;;;;;5109535;28;20028;-73
2021/06/20 02:37:33;;;;;;;19.42;13.73;;;21.90;99.90;;;;;;5099088;28;21007;-73
2021/06/20 02:39:59;;;;;;;25.45;15.23;;;21.80;99.90;;;;;;5106826;28;20043;-73
2021/06/20 02:42:25;;;;;;;24.48;13.85;;;21.80;99.90;;;;;;5097255;28;20039;-74
2021/06/20 02:44:51;;;;;;;19.40;13.82;;;21.80;99.90;;;;;;5096511;28;20023;-73
2021/06/20 02:47:17;;;;;;;23.15;15.40;;;21.70;99.90;;;;;;5108776;28;20165;-73
2021/06/20 02:49:43;;;;;;;18.80;14.15;;;21.70;99.90;;;;;;5090320;28;20535;-73
2021/06/20 02:52:14;;;;;;;18.38;14.88;;;21.70;99.90;;;;;;5098703;28;20606;-73
2021/06/20 02:54:49;;;;;;;18.00;14.55;;;21.60;99.90;;;;;;5109776;28;20030;-73
2021/06/20 02:57:16;;;;;;;19.88;14.10;;;21.60;99.90;;;;;;5098539;28;20032;-73
2021/06/20 02:59:41;;;;;;;19.90;15.00;;;21.50;99.90;;;;;;5096504;28;20027;-73
2021/06/20 03:02:07;;;;;;;22.58;14.65;;;21.50;99.90;;;;;;5101654;28;20213;-74
2021/06/20 03:04:32;;;;;;;19.02;14.63;;;21.50;99.90;;;;;;5104565;28;20034;-73
2021/06/20 03:06:58;;;;;;;18.67;13.98;;;21.50;99.90;;;;;;5106626;28;20035;-73
2021/06/20 03:09:23;;;;;;;20.50;14.13;;;21.40;99.90;;;;;;5093796;28;20485;-74
2021/06/20 03:11:49;;;;;;;18.65;14.00;;;21.40;99.90;;;;;;5099062;28;20020;-73
2021/06/20 03:14:15;;;;;;;18.85;14.23;;;21.40;99.90;;;;;;5097666;28;20019;-73
2021/06/20 03:16:46;;;;;;;17.10;14.77;;;21.40;99.90;;;;;;5097622;28;20022;-73
2021/06/20 03:19:12;;;;;;;;;;;21.40;99.90;;;;;;5095625;28;20032;-72
2021/06/20 03:21:38;;;;;;;22.23;14.45;;;21.40;99.90;;;;;;5111717;28;19904;-74
2021/06/20 03:24:05;;;;;;;19.92;14.77;;;21.40;99.90;;;;;;5107813;28;20617;-73
2021/06/20 03:26:30;;;;;;;19.88;14.65;;;21.40;99.90;;;;;;5097595;28;20028;-73
2021/06/20 03:28:57;;;;;;;18.27;15.15;;;21.40;99.90;;;;;;5097736;28;20057;-73
2021/06/20 03:31:23;;;;;;;19.42;15.82;;;21.40;99.90;;;;;;5105713;28;20111;-73
2021/06/20 03:33:48;;;;;;;18.85;14.50;;;21.40;99.90;;;;;;5099669;28;20112;-73
2021/06/20 03:36:14;;;;;;;20.80;16.08;;;21.40;99.90;;;;;;5109846;28;20080;-73
2021/06/20 03:38:40;;;;;;;21.85;15.38;;;21.40;99.90;;;;;;5102720;28;20024;-73
2021/06/20 03:41:08;;;;;;;22.95;15.50;;;21.40;99.90;;;;;;5104315;28;20034;-73
2021/06/20 03:43:33;;;;;;;21.23;16.08;;;21.50;99.90;;;;;;5112645;28;20023;-73
2021/06/20 03:45:59;;;;;;;20.80;15.85;;;21.50;99.90;;;;;;5105421;28;20031;-73
2021/06/20 03:48:24;;;;;;;20.35;15.77;;;21.50;99.90;;;;;;5105844;28;20046;-73
2021/06/20 03:50:50;;;;;;;18.00;15.30;;;21.60;99.90;;;;;;5095526;28;20070;-73
2021/06/20 03:53:15;;;;;;;27.67;15.55;;;21.60;99.90;;;;;;5111299;28;20473;-73
2021/06/20 03:55:41;;;;;;;20.23;15.98;;;21.70;99.90;;;;;;5097133;28;20106;-73
2021/06/20 03:58:06;;;;;;;23.48;16.23;;;21.70;99.90;;;;;;5118010;27;20107;-73
2021/06/20 04:00:33;;;;;;;22.08;16.10;;;21.70;99.90;;;;;;5106990;28;20127;-74
2021/06/20 04:02:59;;;;;;;23.60;15.82;;;21.80;99.90;;;;;;5102635;28;20074;-73
2021/06/20 04:05:24;;;;;;;25.98;16.90;;;21.90;99.90;;;;;;5091823;28;20020;-73
2021/06/20 04:07:50;;;;;;;26.48;15.60;;;22.00;99.90;;;;;;5098160;28;20478;-73
2021/06/20 04:10:15;;;;;;;24.77;17.42;;;22.10;99.90;;;;;;5108488;27;20024;-73
2021/06/20 04:12:41;;;;;;;19.88;16.67;;;22.10;99.90;;;;;;5105326;28;20115;-72
2021/06/20 04:15:08;;;;;;;24.05;16.75;;;22.10;99.90;;;;;;5105659;27;20039;-73
2021/06/20 04:17:34;;;;;;;25.33;16.85;;;22.20;99.90;;;;;;5101043;27;20027;-74
2021/06/20 04:20:01;;;;;;;22.77;15.93;;;22.30;99.90;;;;;;5102470;28;20096;-73
2021/06/20 04:22:29;;;;;;;21.40;15.25;;;22.40;99.90;;;;;;5106584;28;21595;-73
2021/06/20 04:24:55;;;;;;;21.27;16.27;;;22.40;99.90;;;;;;5097673;27;20031;-73
2021/06/20 04:27:20;;;;;;;21.42;16.35;;;22.50;99.90;;;;;;5102905;28;20028;-73
2021/06/20 04:29:46;;;;;;;18.85;14.27;;;22.50;99.90;;;;;;5105778;28;20032;-73
2021/06/20 04:32:11;;;;;;;21.75;15.02;;;22.60;99.90;;;;;;5102143;28;20363;-73
2021/06/20 04:34:36;;;;;;;19.08;15.13;;;22.70;99.90;;;;;;5102237;28;20031;-73
2021/06/20 04:37:02;;;;;;;17.40;14.95;;;22.80;99.90;;;;;;5100333;28;20031;-73
2021/06/20 04:39:28;;;;;;;17.85;14.55;;;22.80;99.90;;;;;;5105188;28;20351;-73
2021/06/20 04:41:54;;;;;;;17.55;13.68;;;22.90;99.90;;;;;;5108761;28;20027;-74
2021/06/20 04:47:03;;;;;;;16.70;14.25;;;23.00;99.90;;;;;;5097882;28;20084;-74
2021/06/20 04:49:29;;;;;;;19.65;13.68;;;23.10;99.90;;;;;;5104874;28;20020;-73
2021/06/20 04:51:54;;;;;;;19.92;14.02;;;23.20;99.90;;;;;;5110252;28;20032;-73
2021/06/20 04:54:20;;;;;;;20.52;13.80;;;23.20;99.90;;;;;;5095432;28;20077;-74
2021/06/20 04:56:46;;;;;;;17.88;14.80;;;23.20;99.90;;;;;;5101515;27;20094;-74
2021/06/20 04:59:11;;;;;;;17.20;13.73;;;23.30;99.90;;;;;;5102320;28;20047;-73
2021/06/20 05:01:38;;;;;;;16.13;13.88;;;23.40;99.90;;;;;;5107379;28;20084;-74
2021/06/20 05:04:08;;;;;;;20.15;14.38;;;23.50;99.90;;;;;;5100585;28;20164;-74
2021/06/20 05:06:34;;;;;;;18.73;14.88;;;23.50;99.90;;;;;;5097803;28;20142;-74
2021/06/20 05:08:59;;;;;;;21.20;14.02;;;23.60;99.90;;;;;;5095499;28;20533;-74
2021/06/20 05:11:25;;;;;;;18.02;14.30;;;23.70;99.90;;;;;;5104062;28;20024;-74
2021/06/20 05:13:50;;;;;;;18.73;14.00;;;23.80;99.90;;;;;;5105780;28;20046;-74
2021/06/20 05:16:16;;;;;;;16.83;14.57;;;23.90;99.90;;;;;;5100261;28;20035;-74
2021/06/20 05:18:42;;;;;;;21.63;14.25;;;24.00;99.90;;;;;;5098540;28;20028;-74
2021/06/20 05:21:07;;;;;;;20.02;14.65;;;24.00;99.90;;;;;;5098260;28;20028;-74
2021/06/20 05:23:33;;;;;;;20.70;14.75;;;24.10;99.90;;;;;;5100826;28;20497;-74
2021/06/20 05:25:58;;;;;;;18.55;14.48;;;24.20;99.90;;;;;;5098518;28;20088;-74
2021/06/20 05:28:24;;;;;;;17.48;15.15;;;24.30;99.90;;;;;;5098840;28;20056;-74
2021/06/20 05:30:49;;;;;;;17.27;13.88;;;24.40;99.90;;;;;;5102492;28;20539;-74
2021/06/20 05:33:17;;;;;;;16.80;14.63;;;24.50;99.90;;;;;;5108489;28;20030;-73
2021/06/20 05:35:42;;;;;;;17.25;14.80;;;24.50;99.90;;;;;;5103223;28;20028;-74
2021/06/20 05:38:08;;;;;;;25.40;14.77;;;24.50;99.90;;;;;;5104124;28;20052;-74
2021/06/20 05:40:35;;;;;;;17.30;14.40;;;24.60;99.90;;;;;;5108890;28;20145;-74
2021/06/20 05:43:01;;;;;;;18.95;14.13;;;24.60;99.90;;;;;;5103735;28;20019;-73
2021/06/20 05:45:26;;;;;;;16.35;14.43;;;24.70;99.90;;;;;;5097391;28;20370;-74
2021/06/20 05:47:52;;;;;;;19.23;14.90;;;24.70;99.90;;;;;;5098431;28;20437;-74
2021/06/20 05:50:17;;;;;;;18.98;14.88;;;24.70;99.90;;;;;;5102514;28;20656;-74
2021/06/20 05:52:43;;;;;;;17.30;14.98;;;24.80;99.90;;;;;;5106077;28;20015;-74
2021/06/20 05:55:09;;;;;;;17.70;14.40;;;24.80;99.90;;;;;;5091621;28;20103;-74
2021/06/20 05:57:34;;;;;;;19.67;14.77;;;24.80;99.90;;;;;;5096820;28;20038;-74
2021/06/20 06:00:00;;;;;;;17.20;14.68;;;24.90;99.90;;;;;;5095674;28;20024;-75
2021/06/20 06:02:26;;;;;;;18.38;14.85;;;24.90;99.90;;;;;;5092712;28;20061;-74
2021/06/20 06:04:51;;;;;;;21.25;15.20;;;24.90;99.90;;;;;;5098737;28;20115;-74
2021/06/20 06:07:17;;;;;;;21.00;16.20;;;25.00;99.90;;;;;;5105656;28;20494;-74
2021/06/20 06:09:42;;;;;;;16.98;15.10;;;25.10;99.90;;;;;;5105812;28;20036;-74
2021/06/20 06:12:08;;;;;;;17.55;15.05;;;25.10;99.90;;;;;;5100675;28;20110;-74
2021/06/20 06:14:34;;;;;;;18.45;14.60;;;25.20;99.90;;;;;;5100101;28;20034;-74
2021/06/20 06:16:59;;;;;;;17.98;15.80;;;25.20;99.90;;;;;;5094976;28;20012;-74
2021/06/20 06:19:25;;;;;;;16.98;14.63;;;25.30;99.90;;;;;;5102260;28;20038;-74
2021/06/20 06:21:51;;;;;;;19.15;15.50;;;25.40;99.90;;;;;;5107621;28;20039;-74
2021/06/20 06:24:16;;;;;;;21.83;16.02;;;25.50;99.90;;;;;;5105611;28;20032;-74
2021/06/20 06:26:43;;;;;;;18.95;15.48;;;25.60;99.90;;;;;;5110453;28;20024;-75
2021/06/20 06:29:08;;;;;;;18.17;16.23;;;25.80;99.90;;;;;;5103510;28;20062;-73
2021/06/20 06:31:36;;;;;;;17.63;14.13;;;25.90;99.90;;;;;;5095617;28;20051;-72
2021/06/20 06:34:02;;;;;;;17.52;14.65;;;25.90;99.90;;;;;;5100142;28;20608;-73
2021/06/20 06:36:28;;;;;;;14.75;13.25;;;26.00;99.90;;;;;;5094333;28;20051;-73
2021/06/20 06:38:53;;;;;;;18.83;14.38;;;26.10;99.90;;;;;;5109444;28;20529;-73
2021/06/20 06:41:19;;;;;;;16.95;14.82;;;26.20;99.70;;;;;;5110105;28;20031;-73
2021/06/20 06:43:46;;;;;;;19.35;15.32;;;26.30;98.40;;;;;;5106710;28;20023;-73
2021/06/20 06:46:12;;;;;;;17.98;13.93;;;26.40;98.60;;;;;;5100482;28;20050;-73
2021/06/20 06:48:37;;;;;;;18.60;13.77;;;26.50;97.50;;;;;;5106176;28;20035;-72
2021/06/20 06:51:03;;;;;;;17.65;14.98;;;26.60;95.80;;;;;;5092664;28;20020;-72
2021/06/20 06:53:28;;;;;;;18.08;13.63;;;26.60;95.30;;;;;;5105641;28;20027;-73
2021/06/20 06:55:54;;;;;;;15.15;13.27;;;26.60;95.60;;;;;;5108634;28;20024;-73
2021/06/20 06:58:20;;;;;;;17.20;14.70;;;26.60;94.90;;;;;;5111034;28;20032;-73
2021/06/20 07:00:46;;;;;;;18.33;14.43;;;26.70;95.80;;;;;;5109107;28;20024;-73
2021/06/20 07:03:12;;;;;;;21.13;13.88;;;26.70;95.30;;;;;;5106358;28;20032;-74
2021/06/20 07:05:38;;;;;;;18.52;13.95;;;26.80;95.00;;;;;;5106337;28;20386;-73
2021/06/20 07:08:04;;;;;;;16.52;14.70;;;26.80;95.50;;;;;;5106172;28;20118;-73
2021/06/20 07:10:30;;;;;;;17.02;14.20;;;26.80;95.80;;;;;;5105709;28;20431;-73
2021/06/20 07:12:55;;;;;;;17.33;15.02;;;26.70;94.80;;;;;;5107026;28;20017;-74
2021/06/20 07:15:21;;;;;;;18.65;14.82;;;26.80;95.90;;;;;;5104033;28;20475;-73
2021/06/20 07:17:47;;;;;;;22.77;14.95;;;26.90;95.30;;;;;;5103868;28;20543;-73
2021/06/20 07:20:17;;;;;;;15.23;12.57;;;26.90;95.40;;;;;;5109521;28;20382;-73
2021/06/20 07:22:44;;;;;;;16.83;14.30;;;26.90;95.40;;;;;;5108718;28;20055;-73
2021/06/20 07:25:11;;;;;;;20.48;15.07;;;26.90;96.90;;;;;;5108764;28;20024;-73
2021/06/20 07:27:37;;;;;;;18.95;14.30;;;27.00;94.90;;;;;;5094223;28;20060;-73
2021/06/20 07:30:08;;;;;;;19.30;14.85;;;27.10;96.00;;;;;;5100898;28;20057;-73
2021/06/20 07:32:34;;;;;;;14.50;11.98;;;27.10;94.90;;;;;;5103610;28;20052;-73
2021/06/20 07:35:00;;;;;;;17.15;13.48;;;27.10;93.20;;;;;;5105988;28;20491;-73
2021/06/20 07:37:29;;;;;;;17.83;15.18;;;27.20;95.80;;;;;;5108060;28;20119;-73
2021/06/20 07:39:54;;;;;;;17.95;13.90;;;27.30;95.90;;;;;;5103355;28;20031;-75
2021/06/20 07:42:20;;;;;;;16.92;14.45;;;27.30;94.30;;;;;;5111906;28;20390;-72
2021/06/20 07:44:45;;;;;;;16.08;13.82;;;27.30;93.90;;;;;;5101611;28;20028;-73
2021/06/20 07:47:11;;;;;;;20.75;16.67;;;27.30;93.30;;;;;;5109430;28;20355;-73
2021/06/20 07:49:36;;;;;;;12.23;10.48;;;27.30;94.20;;;;;;5101215;28;20043;-72
2021/06/20 07:52:02;;;;;;;18.50;14.85;;;27.40;93.20;;;;;;5111337;28;20023;-74
2021/06/20 07:54:28;;;;;;;18.67;15.65;;;27.50;94.30;;;;;;5104473;28;20472;-73
2021/06/20 07:56:53;;;;;;;19.15;14.32;;;27.40;93.10;;;;;;5112370;28;20240;-73
2021/06/20 07:59:20;;;;;;;18.58;15.48;;;27.40;92.80;;;;;;5105030;27;20501;-73
2021/06/20 08:01:45;;;;;;;15.43;13.55;;;27.50;92.00;;;;;;5096252;28;20032;-73
2021/06/20 08:04:11;;;;;;;17.17;15.38;;;27.50;93.50;;;;;;5107035;28;20419;-72
2021/06/20 08:06:38;;;;;;;16.50;14.77;;;27.50;91.40;;;;;;5110885;28;20043;-73
2021/06/20 08:09:04;;;;;;;17.83;15.48;;;27.50;91.80;;;;;;5107410;28;20044;-72
2021/06/20 08:11:32;;;;;;;13.88;12.43;;;27.60;92.00;;;;;;5100638;28;20111;-72
2021/06/20 08:13:59;;;;;;;17.70;15.23;;;27.60;93.30;;;;;;5108546;28;20024;-73
2021/06/20 08:16:26;;;;;;;19.58;14.98;;;27.70;92.60;;;;;;5105489;28;20539;-72
2021/06/20 08:18:52;;;;;;;20.98;16.67;;;27.70;92.60;;;;;;5101370;28;20108;-72
2021/06/20 08:21:18;;;;;;;17.88;15.52;;;27.70;92.20;;;;;;5093852;27;20066;-76
2021/06/20 08:23:43;;;;;;;22.55;17.48;;;27.60;90.70;;;;;;5111057;28;20486;-78
2021/06/20 08:26:09;;;;;;;14.55;12.75;;;27.60;92.10;;;;;;5115245;27;20030;-80
2021/06/20 08:28:34;;;;;;;19.98;17.30;;;27.70;88.30;;;;;;5108654;28;20024;-78
2021/06/20 08:31:01;;;;;;;21.80;17.63;;;27.60;93.80;;;;;;5097548;28;20016;-85
2021/06/20 08:33:27;;;;;;;24.88;18.75;;;27.70;94.00;;;;;;5098207;28;20027;-77
2021/06/20 08:35:53;;;;;;;20.08;17.95;;;27.90;91.90;;;;;;5098378;27;20027;-80
2021/06/20 08:38:18;;;;;;;21.77;18.25;;;28.00;92.20;;;;;;5102614;28;20058;-77
2021/06/20 08:40:44;;;;;;;21.13;17.63;;;28.10;91.50;;;;;;5095668;28;20110;-77
2021/06/20 08:43:10;;;;;;;19.75;17.65;;;28.20;90.80;;;;;;5097144;28;20028;-77
2021/06/20 08:45:37;;;;;;;20.90;16.95;;;28.30;90.00;;;;;;5093446;28;20390;-77
2021/06/20 08:48:03;;;;;;;20.10;17.58;;;28.40;90.10;;;;;;5094113;28;20446;-77
2021/06/20 08:50:28;;;;;;;20.60;17.83;;;28.50;88.30;;;;;;5098352;28;20119;-78
2021/06/20 08:52:55;;;;;;;19.15;17.15;;;28.60;90.20;;;;;;5098972;27;20022;-78
2021/06/20 08:55:35;;;;;;;22.02;18.15;;;28.60;89.10;;;;;;5099367;28;20032;-78
2021/06/20 08:58:41;;;;;;;20.02;17.90;;;28.70;88.10;;;;;;5099913;28;20018;-77
2021/06/20 09:01:07;;;;;;;19.80;17.73;;;28.80;87.20;;;;;;5102030;28;20032;-78
2021/06/20 09:03:38;;;;;;;20.95;18.00;;;28.80;86.70;;;;;;5096608;28;20470;-78
2021/06/20 09:06:13;;;;;;;25.30;18.40;;;28.90;86.60;;;;;;5097943;28;20050;-78
2021/06/20 09:08:38;;;;;;;21.27;18.00;;;29.10;84.40;;;;;;5095052;28;20031;-77
2021/06/20 09:11:04;;;;;;;22.63;17.83;;;29.00;85.90;;;;;;5098844;28;20546;-79
2021/06/20 09:13:34;;;;;;;19.17;16.92;;;29.10;84.60;;;;;;5099187;28;20198;-77
2021/06/20 09:16:02;;;;;;;21.15;17.08;;;29.20;81.60;;;;;;5094100;28;20032;-78
2021/06/20 09:18:28;;;;;;;18.27;15.13;;;29.30;82.50;;;;;;5108583;27;20028;-79
2021/06/20 09:20:53;;;;;;;16.48;14.05;;;29.40;79.60;;;;;;5110608;28;20028;-80
2021/06/20 09:23:19;;;;;;;16.38;13.43;;;29.50;76.30;;;;;;5099196;28;20024;-82
2021/06/20 09:25:53;;;;;;;15.80;12.73;;;29.50;75.70;;;;;;5105685;27;20015;-77
2021/06/20 09:28:18;;;;;;;14.85;13.02;;;29.70;73.00;;;;;;5099414;28;20031;-84
2021/06/20 09:30:53;;;;;;;13.77;12.07;;;30.00;73.00;;;;;;5100371;28;20372;-80
2021/06/20 09:33:22;;;;;;;13.80;12.40;;;30.00;72.90;;;;;;5105866;28;20023;-87
2021/06/20 09:35:53;;;;;;;13.05;11.65;;;30.10;71.80;;;;;;5107203;28;20082;-75
2021/06/20 09:38:21;;;;;;;14.13;12.70;;;30.20;70.30;;;;;;5092370;28;20050;-87
2021/06/20 09:40:50;;;;;;;16.88;10.27;;;30.20;69.40;;;;;;5096366;28;20072;-79
2021/06/20 09:43:17;;;;;;;13.57;11.23;;;30.10;67.30;;;;;;5100682;28;20039;-82
2021/06/20 09:45:52;;;;;;;14.32;10.10;;;30.20;67.60;;;;;;5101756;28;20031;-83
2021/06/20 09:48:32;;;;;;;15.00;10.45;;;30.20;67.30;;;;;;5101209;28;20059;-88
2021/06/20 09:51:00;;;;;;;16.55;11.15;;;30.50;65.00;;;;;;5099668;28;20024;-88
2021/06/20 09:53:38;;;;;;;12.30;9.93;;;30.50;65.00;;;;;;5096543;28;20061;-82
2021/06/20 09:56:10;;;;;;;13.25;10.32;;;30.50;64.70;;;;;;5093305;28;20030;-82
2021/06/20 09:58:42;;;;;;;11.00;9.80;;;30.40;65.70;;;;;;5104755;28;20016;-85
2021/06/20 10:01:28;;;;;;;12.90;9.90;;;30.50;65.40;;;;;;5100058;28;20039;-85
2021/06/20 10:03:54;;;;;;;14.00;10.38;;;30.60;64.80;;;;;;5097421;28;20019;-80
2021/06/20 10:06:20;;;;;;;13.98;10.05;;;30.50;65.40;;;;;;5107714;28;20108;-83
2021/06/20 10:08:46;;;;;;;13.90;9.65;;;30.60;64.20;;;;;;5104683;28;20494;-85
2021/06/20 10:11:13;;;;;;;12.13;9.80;;;30.60;64.00;;;;;;5104280;28;20110;-77
2021/06/20 10:13:39;;;;;;;16.13;10.10;;;30.70;63.10;;;;;;5099229;28;20077;-75
2021/06/20 10:16:27;;;;;;;10.35;8.93;;;30.80;62.70;;;;;;5094167;28;20051;-84
2021/06/20 10:19:03;;;;;;;15.15;9.20;;;30.80;63.90;;;;;;5080766;28;20035;-84
2021/06/20 10:21:36;;;;;;;14.73;10.07;;;30.80;64.20;;;;;;5092746;28;20037;-83
2021/06/20 10:24:06;;;;;;;17.10;10.88;;;30.80;65.00;;;;;;5100429;28;20042;-83
2021/06/20 10:26:33;;;;;;;13.05;10.43;;;30.70;64.50;;;;;;5101380;28;20034;-85
2021/06/20 10:28:59;;;;;;;14.48;10.45;;;30.90;64.90;;;;;;5105443;28;20027;-82
2021/06/20 10:31:37;;;;;;;16.85;10.40;;;31.00;64.10;;;;;;5100438;28;20028;-81
2021/06/20 10:34:30;;;;;;;15.50;10.50;;;31.00;65.50;;;;;;5100845;28;20437;-82
2021/06/20 10:36:58;;;;;;;15.55;10.00;;;31.10;64.00;;;;;;5099708;28;20480;-85
2021/06/20 10:39:25;;;;;;;13.45;9.85;;;31.20;63.40;;;;;;5106277;28;20620;-83
2021/06/20 10:42:11;;;;;;;14.25;10.15;;;31.20;62.90;;;;;;5099740;28;20035;-83
2021/06/20 10:44:46;;;;;;;14.73;9.23;;;31.40;62.30;;;;;;5103078;28;20594;-82
2021/06/20 10:47:12;;;;;;;15.70;9.65;;;31.40;62.40;;;;;;5102556;28;20054;-81
2021/06/20 10:49:39;;;;;;;13.60;8.75;;;31.60;61.10;;;;;;5101795;28;20123;-84
2021/06/20 10:52:17;;;;;;;13.18;9.32;;;31.70;61.00;;;;;;5096732;28;20542;-83
2021/06/20 10:54:43;;;;;;;24.40;9.55;;;31.90;61.20;;;;;;5103099;28;20026;-89
2021/06/20 10:57:11;;;;;;;14.75;9.60;;;32.10;62.70;;;;;;5091201;28;20378;-84
2021/06/20 10:59:37;;;;;;;16.08;9.70;;;32.10;59.80;;;;;;5103430;28;20035;-84
2021/06/20 11:02:02;;;;;;;22.42;9.65;;;32.20;59.80;;;;;;5098727;28;20028;-82
2021/06/20 11:04:39;;;;;;;27.10;8.57;;;32.20;59.70;;;;;;5099520;28;20070;-76
2021/06/20 11:07:05;;;;;;;17.85;9.23;;;32.40;59.40;;;;;;5095529;28;20048;-77
2021/06/20 11:09:36;;;;;;;14.57;9.25;;;32.70;60.10;;;;;;5101820;28;20078;-76
2021/06/20 11:12:13;;;;;;;24.15;9.77;;;33.00;58.30;;;;;;5096606;28;20020;-74
2021/06/20 11:14:43;;;;;;;20.70;9.70;;;33.30;59.10;;;;;;5105053;28;20024;-75
2021/06/20 11:17:10;;;;;;;20.15;7.95;;;33.50;57.00;;;;;;5094223;28;20077;-82
2021/06/20 11:19:36;;;;;;;19.25;8.88;;;33.70;54.90;;;;;;5104727;28;20031;-84
2021/06/20 11:22:05;;;;;;;21.95;9.00;;;33.80;55.80;;;;;;5099115;28;20024;-78
2021/06/20 11:24:36;;;;;;;29.63;9.43;;;34.10;55.00;;;;;;5092838;28;20080;-77
2021/06/20 11:27:09;;;;;;;18.85;9.02;;;34.30;53.90;;;;;;5103477;28;20035;-77
2021/06/20 11:29:38;;;;;;;17.17;9.52;;;34.50;53.60;;;;;;5100747;28;20385;-77
2021/06/20 11:32:04;;;;;;;18.00;9.25;;;34.70;53.30;;;;;;5089819;28;20031;-77
2021/06/20 11:34:30;;;;;;;17.00;9.43;;;35.10;53.00;;;;;;5096149;28;20031;-78
2021/06/20 11:36:56;;;;;;;20.55;8.95;;;35.40;51.40;;;;;;5097822;28;20031;-79
2021/06/20 11:39:21;;;;;;;15.52;8.55;;;35.30;51.10;;;;;;5093490;28;20028;-78
2021/06/20 11:41:50;;;;;;;15.27;8.88;;;35.20;51.30;;;;;;5103182;28;20024;-78
2021/06/20 11:44:17;;;;;;;16.10;9.07;;;34.80;51.00;;;;;;5098784;28;20032;-79
2021/06/20 11:46:45;;;;;;;14.70;10.07;;;34.20;52.40;;;;;;5101993;28;20077;-80
2021/06/20 11:49:14;;;;;;;19.35;9.18;;;34.00;54.40;;;;;;5102707;28;20031;-80
2021/06/20 11:52:09;;;;;;;19.60;9.50;;;34.20;54.50;;;;;;5106731;28;20047;-77
2021/06/20 11:54:34;;;;;;;17.15;10.15;;;34.50;52.20;;;;;;5084869;28;20085;-75
2021/06/20 11:57:05;;;;;;;14.80;9.18;;;34.60;52.20;;;;;;5107431;28;20023;-75
2021/06/20 11:59:34;;;;;;;15.50;8.73;;;35.10;54.40;;;;;;5102928;28;20104;-75
2021/06/20 12:02:01;;;;;;;21.55;7.53;;;35.70;49.70;;;;;;5109208;28;20513;-74
2021/06/20 12:04:32;;;;;;;19.42;7.88;;;35.70;48.80;;;;;;5095132;28;20039;-76
2021/06/20 12:07:06;;;;;;;19.40;7.35;;;36.10;48.40;;;;;;5106132;28;20117;-75
2021/06/20 12:09:32;;;;;;;11.30;7.13;;;36.20;46.80;;;;;;5100059;28;20505;-75
2021/06/20 12:12:06;;;;;;;16.70;6.65;;;35.90;47.20;;;;;;5105406;28;20100;-75
2021/06/20 12:15:17;;;;;;;21.85;7.32;;;36.00;46.80;;;;;;5103368;28;20393;-75
2021/06/20 12:17:50;;;;;;;13.52;7.57;;;36.60;45.90;;;;;;5096658;28;20047;-75
2021/06/20 12:20:27;;;;;;;14.70;6.97;;;37.50;45.50;;;;;;5100298;28;20565;-76
2021/06/20 12:22:52;;;;;;;19.05;6.85;;;38.20;44.00;;;;;;5099463;28;20023;-76
2021/06/20 12:25:18;;;;;;;13.65;6.78;;;38.70;42.60;;;;;;5109017;28;20028;-75
2021/06/20 12:27:43;;;;;;;14.48;6.90;;;38.70;41.90;;;;;;5111928;28;20066;-76
2021/06/20 12:30:19;;;;;;;13.60;7.18;;;39.10;41.90;;;;;;5105347;28;20408;-75
2021/06/20 12:32:46;;;;;;;16.63;7.63;;;39.50;41.90;;;;;;5099860;28;20051;-76